ADDS METAR Data INFO
IDs: Format: Raw Decoded Include TAF

Data at: 1810 UTC 19 Oct 2017

KLXY 191755Z AUTO 19004KT 10SM CLR 25/15 A3015 RMK AO2 T02510151 10253 20113
KLXY 191735Z AUTO 15003KT 10SM CLR 25/15 A3016 RMK AO2 T02520151
KLXY 191715Z AUTO 19004G20KT 10SM CLR 25/15 A3017 RMK AO2 T02450149
KLXY 191655Z AUTO 18010G18KT 10SM CLR 25/15 A3017 RMK AO2 T02470151
KLXY 191635Z AUTO 15010G18KT 10SM CLR 25/15 A3017 RMK AO2 T02480153
KLXY 191615Z AUTO 16008G18KT 10SM CLR 24/15 A3017 RMK AO2 T02370151
KLXY 191555Z AUTO 19013G17KT 140V200 10SM CLR 23/15 A3018 RMK AO2 T02290152
KLXY 191535Z AUTO 17009G17KT 140V200 10SM CLR 23/15 A3018 RMK AO2 T02300152
KLXY 191515Z AUTO 18007KT 10SM CLR 22/16 A3018 RMK AO2 T02210156
KLXY 191455Z AUTO 14004KT 10SM CLR 19/15 A3018 RMK AO2 T01940154
KLXY 191435Z AUTO 10009KT 10SM CLR 17/15 A3017 RMK AO2 T01710148
KLXY 191415Z AUTO 11004KT 10SM CLR 15/15 A3017 RMK AO2 T01540146
KLXY 191355Z AUTO 19005KT 5SM BR CLR 14/14 A3016 RMK AO2 T01410136
KLXY 191335Z AUTO 19004KT 4SM BR CLR 13/13 A3015 RMK AO2 T01300125
KLXY 191315Z AUTO 18006KT 1/2SM FG VV005 12/11 A3015 RMK AO2 T01180113
KLXY 191255Z AUTO 19005KT 1 1/2SM BR VV007 13/12 A3014 RMK AO2 T01270121
KLXY 191235Z AUTO 19006KT 1SM BR VV007 13/12 A3014 RMK AO2 T01270121
KLXY 191215Z AUTO 19006KT 4SM BR CLR 13/12 A3014 RMK AO2 T01250117
KLXY 191155Z AUTO 19006KT 7SM CLR 12/11 A3014 RMK AO2 T01240114 10154 20124
KLXY 191135Z AUTO 00000KT 10SM CLR 13/12 A3013 RMK AO2 T01300118
KLXY 191115Z AUTO 19006KT 10SM CLR 13/12 A3013 RMK AO2 T01310116
KLXY 191055Z AUTO 18006KT 10SM CLR 13/12 A3013 RMK AO2 T01330115
KLXY 191035Z AUTO 19006KT 10SM CLR 13/11 A3013 RMK AO2 T01320111
KLXY 191015Z AUTO 19006KT 10SM CLR 13/11 A3013 RMK AO2 T01310110
KLXY 190955Z AUTO 18006KT 10SM CLR 13/11 A3013 RMK AO2 T01300106
KLXY 190935Z AUTO 18005KT 10SM CLR 13/10 A3013 RMK AO2 T01330103
KLXY 190915Z AUTO 17004KT 10SM CLR 14/11 A3013 RMK AO2 T01380105
KLXY 190855Z AUTO 18003KT 10SM CLR 14/10 A3013 RMK AO2 T01380103
KLXY 190835Z AUTO 18004KT 10SM CLR 14/10 A3012 RMK AO2 T01370100
KLXY 190815Z AUTO 18004KT 10SM CLR 14/10 A3013 RMK AO2 T01420100
KLXY 190755Z AUTO 18007KT 10SM CLR 14/10 A3013 RMK AO2 T01420100
KLXY 190735Z AUTO 19008KT 10SM CLR 14/10 A3013 RMK AO2 T01400100
KLXY 190715Z AUTO 19011KT 10SM CLR 15/10 A3012 RMK AO2 T01460100
KLXY 190655Z AUTO 19010KT 10SM CLR 15/10 A3012 RMK AO2 T01490097
KLXY 190635Z AUTO 19011KT 10SM CLR 15/10 A3011 RMK AO2 T01520096
KLXY 190615Z AUTO 19010KT 10SM CLR 15/10 A3012 RMK AO2 T01520096
KLXY 190555Z AUTO 20010KT 10SM CLR 15/09 A3012 RMK AO2 T01500093 10223 20150 402830083
KLXY 190535Z AUTO 20010KT 10SM CLR 16/10 A3012 RMK AO2 T01550095
KLXY 190515Z AUTO 20009KT 10SM CLR 16/09 A3012 RMK AO2 T01560090
KLXY 190455Z AUTO 20009KT 10SM CLR 16/09 A3012 RMK AO2 T01570085
KLXY 190435Z AUTO 19009KT 10SM CLR 16/08 A3012 RMK AO2 T01550082
KLXY 190415Z AUTO 18008KT 10SM CLR 16/08 A3012 RMK AO2 T01610083
KLXY 190355Z AUTO 16006KT 10SM CLR 16/08 A3012 RMK AO2 T01640082
KLXY 190335Z AUTO 12007KT 10SM CLR 17/08 A3011 RMK AO2 T01690080
KLXY 190315Z AUTO 16007KT 10SM CLR 17/08 A3011 RMK AO2 T01700075
KLXY 190255Z AUTO 13006KT 10SM CLR 17/07 A3011 RMK AO2 T01720072
KLXY 190235Z AUTO 14004KT 10SM CLR 17/07 A3011 RMK AO2 T01740066
KLXY 190215Z AUTO 00000KT 10SM CLR 17/06 A3011 RMK AO2 T01720056
KLXY 190155Z AUTO 00000KT 10SM CLR 18/05 A3011 RMK AO2 T01780050
KLXY 190135Z AUTO 00000KT 10SM CLR 19/05 A3011 RMK AO2 T01850045
KLXY 190115Z AUTO 00000KT 10SM CLR 19/04 A3010 RMK AO2 T01940040
KLXY 190055Z AUTO 13003KT 10SM CLR 20/04 A3010 RMK AO2 T01990042
KLXY 190035Z AUTO 15005KT 10SM CLR 20/04 A3009 RMK AO2 T02040040
KLXY 190015Z AUTO 15004KT 10SM CLR 22/04 A3009 RMK AO2 T02170038
KLXY 182355Z AUTO 15004KT 10SM CLR 23/04 A3009 RMK AO2 T02250040 10283 20225
KLXY 182335Z AUTO 16007KT 10SM CLR 24/04 A3009 RMK AO2 T02370037
KLXY 182315Z AUTO 16009KT 10SM CLR 25/04 A3009 RMK AO2 T02520037
KLXY 182255Z AUTO 12010KT 10SM CLR 27/04 A3008 RMK AO2 T02650041
KLXY 182235Z AUTO 15009KT 120V180 10SM CLR 27/04 A3008 RMK AO2 T02730043
KLXY 182215Z AUTO 16008KT 10SM CLR 28/04 A3008 RMK AO2 T02760041
KLXY 182155Z AUTO 16010KT 10SM CLR 28/05 A3008 RMK AO2 T02770046
KLXY 182135Z AUTO 16010G14KT 10SM CLR 28/05 A3008 RMK AO2 T02800046
KLXY 182115Z AUTO 16005KT 10SM CLR 28/05 A3009 RMK AO2 T02790051
KLXY 182055Z AUTO 17008KT 120V180 10SM CLR 28/05 A3009 RMK AO2 T02830054
KLXY 182035Z AUTO 13007KT 10SM CLR 28/05 A3009 RMK AO2 T02780053
KLXY 182015Z AUTO 18004KT 10SM CLR 28/06 A3010 RMK AO2 T02790055
KLXY 181955Z AUTO 20004KT 10SM CLR 27/05 A3011 RMK AO2 T02680050
KLXY 181935Z AUTO 15005KT 10SM CLR 27/05 A3011 RMK AO2 T02690053
KLXY 181915Z AUTO 16004KT 10SM CLR 27/06 A3013 RMK AO2 T02660062
KLXY 181855Z AUTO 16003KT 10SM CLR 26/06 A3014 RMK AO2 T02610060
KLXY 181835Z AUTO 19005KT 10SM CLR 26/06 A3015 RMK AO2 T02590064
KLXY 181815Z AUTO 18005G15KT 10SM CLR 25/07 A3016 RMK AO2 T02490068
KLXY 181755Z AUTO 15006KT 10SM CLR 24/07 A3017 RMK AO2 T02440068 10245 20083
KLXY 181735Z AUTO 15005G14KT 10SM CLR 24/07 A3017 RMK AO2 T02390073
KLXY 181715Z AUTO 22005G14KT 10SM CLR 24/08 A3018 RMK AO2 T02350075
KLXY 181655Z AUTO 17007KT 150V220 10SM CLR 22/08 A3019 RMK AO2 T02240075
KLXY 181635Z AUTO 20010G14KT 10SM CLR 22/07 A3019 RMK AO2 T02240073
KLXY 181615Z AUTO 19009G15KT 10SM CLR 21/08 A3019 RMK AO2 T02130080
KLXY 181555Z AUTO 21007KT 10SM CLR 21/09 A3019 RMK AO2 T02060086
KLXY 181535Z AUTO 18008KT 130V200 10SM CLR 20/09 A3019 RMK AO2 T01960086
KLXY 181515Z AUTO 19008KT 10SM CLR 18/09 A3019 RMK AO2 T01840085
KLXY 181455Z AUTO 16006KT 10SM CLR 16/08 A3019 RMK AO2 T01630083
KLXY 181435Z AUTO 15006KT 10SM CLR 15/08 A3019 RMK AO2 T01500084
KLXY 181415Z AUTO 15004KT 10SM CLR 14/09 A3018 RMK AO2 T01370086
KLXY 181355Z AUTO 16003KT 10SM CLR 12/09 A3017 RMK AO2 T01210088
KLXY 181335Z AUTO 17003KT 10SM CLR 10/08 A3017 RMK AO2 T01040084
KLXY 181315Z AUTO 00000KT 10SM CLR 09/07 A3016 RMK AO2 T00920071
KLXY 181255Z AUTO 00000KT 10SM CLR 08/07 A3016 RMK AO2 T00840067
KLXY 181235Z AUTO 00000KT 10SM CLR 08/07 A3016 RMK AO2 T00840066
KLXY 181215Z AUTO 00000KT 10SM CLR 09/06 A3016 RMK AO2 T00860062
KLXY 181155Z AUTO 00000KT 10SM CLR 09/06 A3016 RMK AO2 T00910063 10120 20091
KLXY 181135Z AUTO 00000KT 10SM CLR 09/06 A3015 RMK AO2 T00940063
KLXY 181115Z AUTO 00000KT 10SM CLR 10/06 A3016 RMK AO2 T00970063
KLXY 181055Z AUTO 00000KT 10SM CLR 10/06 A3015 RMK AO2 T01000062
KLXY 181035Z AUTO 00000KT 10SM CLR 10/07 A3015 RMK AO2 T00980065
KLXY 181015Z AUTO 00000KT 10SM CLR 10/06 A3014 RMK AO2 T01000060
KLXY 180955Z AUTO 00000KT 10SM CLR 11/06 A3014 RMK AO2 T01060060
KLXY 180935Z AUTO 00000KT 10SM CLR 11/06 A3015 RMK AO2 T01050060
KLXY 180915Z AUTO 00000KT 10SM CLR 11/06 A3015 RMK AO2 T01070061
KLXY 180855Z AUTO 00000KT 10SM CLR 10/06 A3015 RMK AO2 T01010063
KLXY 180835Z AUTO 00000KT 10SM CLR 10/06 A3015 RMK AO2 T01030062
KLXY 180815Z AUTO 00000KT 10SM CLR 10/06 A3016 RMK AO2 T01040062
KLXY 180755Z AUTO 00000KT 10SM CLR 11/07 A3016 RMK AO2 T01090065
KLXY 180735Z AUTO 00000KT 10SM CLR 11/06 A3017 RMK AO2 T01080060
KLXY 180715Z AUTO 00000KT 10SM CLR 11/06 A3016 RMK AO2 T01120057
KLXY 180655Z AUTO 00000KT 10SM CLR 11/06 A3016 RMK AO2 T01100055
KLXY 180635Z AUTO 00000KT 10SM CLR 11/05 A3016 RMK AO2 T01100049
KLXY 180615Z AUTO 15003KT 10SM CLR 12/05 A3016 RMK AO2 T01150049